Etusivu
METAR-TAF:

METAR-TAF

Lentoasemat :

Monticello Regional Airport

Monticello, Iowa, Yhdysvallat

Leveyspiiri: 42-14N, Pituuspiiri: 091-10W, korkeus merenpinnasta: 259 m

Tämänhetkinen sää

Tämä raportti tehtiin 14 minuuttia sitten, kello 19.15 UTC
tyyntä
Lämpötila 2°C
Kosteus 80%
Ilmanpaine 1027 hPa
Näkyvyys: 16.1 km
selkeää

METAR: KMXO 251915Z AUTO 00000KT 10SM CLR 02/M01 A3034 RMK AO2

Aika: 13:29 (19:29 UTC)


TAF: puuttuu

Säähavainnot ja -ennusteet yli 4000 lentoasemalta (METAR- ja TAF-raportit).

Käytössä olevat sääasemat on merkitty karttaan keltaisilla ja punaisilla pisteillä.

Aseta hiiri pisteen päälle nähdäksesi sääaseman nimen.

Klikkaa sitten nähdäksesi säähavainnot ja -ennusteet.

Kartan vaihtaminen: klikkaa mustalla rastilla varustettuja vihreitä pisteitä, niin voit zoomata sisään; viivalla varustettua vihreää pistettä, niin voit zoomata ulos tai vihreitä nuolia, niin pääset viereisille kartoille.


METAR-TAF: